sensor_id;sensor_type;location;lat;lon;timestamp;pressure;altitude;pressure_sealevel;temperature;humidity
65758;BME280;52495;52.208;5.158;2023-04-27T00:00:51;102093.00;;;3.80;78.67
65758;BME280;52495;52.208;5.158;2023-04-27T00:03:18;102095.09;;;3.66;79.19
65758;BME280;52495;52.208;5.158;2023-04-27T00:05:44;102098.22;;;3.57;79.92
65758;BME280;52495;52.208;5.158;2023-04-27T00:08:13;102109.16;;;3.53;80.29
65758;BME280;52495;52.208;5.158;2023-04-27T00:10:39;102108.22;;;3.49;80.62
65758;BME280;52495;52.208;5.158;2023-04-27T00:13:06;102101.25;;;3.45;80.46
65758;BME280;52495;52.208;5.158;2023-04-27T00:15:33;102108.78;;;3.41;80.76
65758;BME280;52495;52.208;5.158;2023-04-27T00:18:00;102107.03;;;3.40;81.29
65758;BME280;52495;52.208;5.158;2023-04-27T00:20:27;102099.38;;;3.40;81.33
65758;BME280;52495;52.208;5.158;2023-04-27T00:22:54;102104.44;;;3.38;81.46
65758;BME280;52495;52.208;5.158;2023-04-27T00:25:22;102094.03;;;3.32;80.96
65758;BME280;52495;52.208;5.158;2023-04-27T00:27:49;102096.44;;;3.27;80.88
65758;BME280;52495;52.208;5.158;2023-04-27T00:30:16;102109.22;;;3.29;81.63
65758;BME280;52495;52.208;5.158;2023-04-27T00:32:42;102097.09;;;3.22;82.01
65758;BME280;52495;52.208;5.158;2023-04-27T00:35:10;102093.06;;;3.28;82.08
65758;BME280;52495;52.208;5.158;2023-04-27T00:37:36;102094.94;;;3.34;81.76
65758;BME280;52495;52.208;5.158;2023-04-27T00:40:04;102094.94;;;3.34;81.60
65758;BME280;52495;52.208;5.158;2023-04-27T00:42:34;102094.16;;;3.37;81.04
65758;BME280;52495;52.208;5.158;2023-04-27T00:45:01;102105.38;;;3.40;81.01
65758;BME280;52495;52.208;5.158;2023-04-27T00:47:29;102102.63;;;3.36;80.82
65758;BME280;52495;52.208;5.158;2023-04-27T00:49:57;102099.13;;;3.32;80.73
65758;BME280;52495;52.208;5.158;2023-04-27T00:52:25;102099.91;;;3.29;80.95
65758;BME280;52495;52.208;5.158;2023-04-27T00:54:51;102102.22;;;3.23;80.21
65758;BME280;52495;52.208;5.158;2023-04-27T00:57:19;102095.25;;;3.17;80.43
65758;BME280;52495;52.208;5.158;2023-04-27T00:59:49;102085.75;;;3.13;80.63
65758;BME280;52495;52.208;5.158;2023-04-27T01:02:16;102083.81;;;3.06;80.61
65758;BME280;52495;52.208;5.158;2023-04-27T01:04:44;102082.81;;;3.02;80.70
65758;BME280;52495;52.208;5.158;2023-04-27T01:07:11;102080.16;;;2.99;81.06
65758;BME280;52495;52.208;5.158;2023-04-27T01:09:37;102086.91;;;2.97;81.47
65758;BME280;52495;52.208;5.158;2023-04-27T01:12:05;102093.69;;;2.97;81.75
65758;BME280;52495;52.208;5.158;2023-04-27T01:14:32;102094.56;;;2.97;81.63
65758;BME280;52495;52.208;5.158;2023-04-27T01:17:00;102097.97;;;2.98;81.90
65758;BME280;52495;52.208;5.158;2023-04-27T01:19:26;102095.53;;;3.01;81.48
65758;BME280;52495;52.208;5.158;2023-04-27T01:21:54;102099.88;;;3.03;81.50
65758;BME280;52495;52.208;5.158;2023-04-27T01:24:25;102106.53;;;2.98;80.25
65758;BME280;52495;52.208;5.158;2023-04-27T01:26:51;102102.84;;;2.92;80.60
65758;BME280;52495;52.208;5.158;2023-04-27T01:29:18;102101.84;;;2.86;80.17
65758;BME280;52495;52.208;5.158;2023-04-27T01:31:45;102101.47;;;2.76;80.27
65758;BME280;52495;52.208;5.158;2023-04-27T01:34:14;102091.16;;;2.72;81.03
65758;BME280;52495;52.208;5.158;2023-04-27T01:36:41;102084.97;;;2.66;81.31
65758;BME280;52495;52.208;5.158;2023-04-27T01:39:07;102093.44;;;2.65;82.74
65758;BME280;52495;52.208;5.158;2023-04-27T01:41:36;102084.19;;;2.68;82.12
65758;BME280;52495;52.208;5.158;2023-04-27T01:44:03;102077.31;;;2.66;82.68
65758;BME280;52495;52.208;5.158;2023-04-27T01:46:29;102079.06;;;2.67;82.54
65758;BME280;52495;52.208;5.158;2023-04-27T01:48:56;102069.94;;;2.73;82.55
65758;BME280;52495;52.208;5.158;2023-04-27T01:51:23;102074.28;;;2.76;82.49
65758;BME280;52495;52.208;5.158;2023-04-27T01:53:50;102076.00;;;2.77;82.62
65758;BME280;52495;52.208;5.158;2023-04-27T01:56:17;102077.75;;;2.78;81.86
65758;BME280;52495;52.208;5.158;2023-04-27T01:58:45;102075.91;;;2.74;82.26
65758;BME280;52495;52.208;5.158;2023-04-27T02:01:12;102074.94;;;2.70;81.46
65758;BME280;52495;52.208;5.158;2023-04-27T02:03:39;102069.78;;;2.69;81.88
65758;BME280;52495;52.208;5.158;2023-04-27T02:06:06;102069.63;;;2.64;81.49
65758;BME280;52495;52.208;5.158;2023-04-27T02:08:33;102071.19;;;2.61;82.03
65758;BME280;52495;52.208;5.158;2023-04-27T02:11:00;102070.09;;;2.54;81.54
65758;BME280;52495;52.208;5.158;2023-04-27T02:13:27;102072.72;;;2.55;81.60
65758;BME280;52495;52.208;5.158;2023-04-27T02:15:55;102075.06;;;2.51;82.03
65758;BME280;52495;52.208;5.158;2023-04-27T02:18:22;102070.50;;;2.42;82.51
65758;BME280;52495;52.208;5.158;2023-04-27T02:20:49;102072.25;;;2.43;83.03
65758;BME280;52495;52.208;5.158;2023-04-27T02:23:16;102070.50;;;2.42;82.83
65758;BME280;52495;52.208;5.158;2023-04-27T02:25:43;102067.22;;;2.45;82.55
65758;BME280;52495;52.208;5.158;2023-04-27T02:28:11;102067.28;;;2.46;81.83
65758;BME280;52495;52.208;5.158;2023-04-27T02:30:38;102062.94;;;2.43;81.85
65758;BME280;52495;52.208;5.158;2023-04-27T02:33:06;102056.91;;;2.41;81.86
65758;BME280;52495;52.208;5.158;2023-04-27T02:35:33;102065.34;;;2.39;81.42
65758;BME280;52495;52.208;5.158;2023-04-27T02:38:00;102056.75;;;2.37;81.17
65758;BME280;52495;52.208;5.158;2023-04-27T02:40:27;102061.63;;;2.31;81.05
65758;BME280;52495;52.208;5.158;2023-04-27T02:42:53;102059.88;;;2.30;81.26
65758;BME280;52495;52.208;5.158;2023-04-27T02:45:20;102053.13;;;2.30;81.58
65758;BME280;52495;52.208;5.158;2023-04-27T02:47:47;102054.81;;;2.31;81.59
65758;BME280;52495;52.208;5.158;2023-04-27T02:50:16;102047.94;;;2.28;81.17
65758;BME280;52495;52.208;5.158;2023-04-27T02:52:43;102052.25;;;2.30;81.25
65758;BME280;52495;52.208;5.158;2023-04-27T02:55:10;102049.69;;;2.30;81.19
65758;BME280;52495;52.208;5.158;2023-04-27T02:57:36;102050.56;;;2.30;80.81
65758;BME280;52495;52.208;5.158;2023-04-27T03:00:04;102053.94;;;2.29;81.18
65758;BME280;52495;52.208;5.158;2023-04-27T03:02:34;102049.69;;;2.30;81.03
65758;BME280;52495;52.208;5.158;2023-04-27T03:05:00;102056.53;;;2.31;80.72
65758;BME280;52495;52.208;5.158;2023-04-27T03:07:30;102060.69;;;2.28;80.88
65758;BME280;52495;52.208;5.158;2023-04-27T03:09:57;102060.56;;;2.25;81.20
65758;BME280;52495;52.208;5.158;2023-04-27T03:12:24;102067.47;;;2.28;81.24
65758;BME280;52495;52.208;5.158;2023-04-27T03:14:50;102071.66;;;2.26;81.29
65758;BME280;52495;52.208;5.158;2023-04-27T03:17:17;102065.63;;;2.24;81.71
65758;BME280;52495;52.208;5.158;2023-04-27T03:19:46;102071.56;;;2.24;81.27
65758;BME280;52495;52.208;5.158;2023-04-27T03:22:15;102074.03;;;2.21;81.34
65758;BME280;52495;52.208;5.158;2023-04-27T03:24:43;102076.47;;;2.18;81.85
65758;BME280;52495;52.208;5.158;2023-04-27T03:27:10;102068.75;;;2.17;82.08
65758;BME280;52495;52.208;5.158;2023-04-27T03:29:37;102079.00;;;2.18;82.93
65758;BME280;52495;52.208;5.158;2023-04-27T03:32:04;102067.09;;;2.17;83.19
65758;BME280;52495;52.208;5.158;2023-04-27T03:34:31;102069.75;;;2.20;83.17
65758;BME280;52495;52.208;5.158;2023-04-27T03:36:57;102072.28;;;2.20;83.15
65758;BME280;52495;52.208;5.158;2023-04-27T03:39:24;102068.94;;;2.21;83.86
65758;BME280;52495;52.208;5.158;2023-04-27T03:41:52;102068.00;;;2.19;83.24
65758;BME280;52495;52.208;5.158;2023-04-27T03:44:19;102071.50;;;2.21;83.79
65758;BME280;52495;52.208;5.158;2023-04-27T03:46:46;102071.41;;;2.20;83.38
65758;BME280;52495;52.208;5.158;2023-04-27T03:49:13;102074.94;;;2.23;82.97
65758;BME280;52495;52.208;5.158;2023-04-27T03:51:40;102070.47;;;2.18;83.45
65758;BME280;52495;52.208;5.158;2023-04-27T03:54:06;102075.56;;;2.18;83.75
65758;BME280;52495;52.208;5.158;2023-04-27T03:56:34;102077.41;;;2.20;83.37
65758;BME280;52495;52.208;5.158;2023-04-27T03:59:03;102069.75;;;2.20;83.66
65758;BME280;52495;52.208;5.158;2023-04-27T04:01:32;102071.50;;;2.21;83.31
65758;BME280;52495;52.208;5.158;2023-04-27T04:03:59;102083.31;;;2.19;83.46
65758;BME280;52495;52.208;5.158;2023-04-27T04:06:26;102079.94;;;2.20;83.45
65758;BME280;52495;52.208;5.158;2023-04-27T04:08:54;102081.72;;;2.23;83.18
65758;BME280;52495;52.208;5.158;2023-04-27T04:11:21;102079.06;;;2.20;82.52
65758;BME280;52495;52.208;5.158;2023-04-27T04:13:52;102076.38;;;2.17;82.29
65758;BME280;52495;52.208;5.158;2023-04-27T04:16:20;102077.09;;;2.12;82.23
65758;BME280;52495;52.208;5.158;2023-04-27T04:18:47;102087.28;;;2.12;82.86
65758;BME280;52495;52.208;5.158;2023-04-27T04:21:14;102085.56;;;2.11;83.13
65758;BME280;52495;52.208;5.158;2023-04-27T04:23:41;102095.03;;;2.16;83.04
65758;BME280;52495;52.208;5.158;2023-04-27T04:26:08;102091.63;;;2.15;82.53
65758;BME280;52495;52.208;5.158;2023-04-27T04:28:35;102088.97;;;2.12;82.90
65758;BME280;52495;52.208;5.158;2023-04-27T04:31:01;102093.19;;;2.11;82.37
65758;BME280;52495;52.208;5.158;2023-04-27T04:33:31;102089.78;;;2.11;82.77
65758;BME280;52495;52.208;5.158;2023-04-27T04:35:57;102090.66;;;2.11;82.67
65758;BME280;52495;52.208;5.158;2023-04-27T04:38:24;102095.63;;;2.08;82.40
65758;BME280;52495;52.208;5.158;2023-04-27T04:40:51;102098.19;;;2.08;82.15
65758;BME280;52495;52.208;5.158;2023-04-27T04:43:18;102103.31;;;2.10;82.47
65758;BME280;52495;52.208;5.158;2023-04-27T04:45:46;102107.56;;;2.09;83.37
65758;BME280;52495;52.208;5.158;2023-04-27T04:48:13;102109.38;;;2.13;83.58
65758;BME280;52495;52.208;5.158;2023-04-27T04:50:42;102105.22;;;2.16;84.12
65758;BME280;52495;52.208;5.158;2023-04-27T04:53:09;102108.06;;;2.23;84.00
65758;BME280;52495;52.208;5.158;2023-04-27T04:55:35;102107.38;;;2.27;83.37
65758;BME280;52495;52.208;5.158;2023-04-27T04:58:03;102102.41;;;2.31;83.31
65758;BME280;52495;52.208;5.158;2023-04-27T05:00:30;102103.44;;;2.36;83.03
65758;BME280;52495;52.208;5.158;2023-04-27T05:02:59;102096.66;;;2.36;83.70
65758;BME280;52495;52.208;5.158;2023-04-27T05:05:26;102099.28;;;2.38;83.22
65758;BME280;52495;52.208;5.158;2023-04-27T05:07:54;102101.88;;;2.39;83.36
65758;BME280;52495;52.208;5.158;2023-04-27T05:10:21;102102.72;;;2.40;83.50
65758;BME280;52495;52.208;5.158;2023-04-27T05:12:48;102102.91;;;2.45;83.74
65758;BME280;52495;52.208;5.158;2023-04-27T05:15:15;102097.16;;;2.50;83.69
65758;BME280;52495;52.208;5.158;2023-04-27T05:17:41;102113.50;;;2.55;84.04
65758;BME280;52495;52.208;5.158;2023-04-27T05:20:09;102106.94;;;2.62;84.66
65758;BME280;52495;52.208;5.158;2023-04-27T05:22:36;102108.03;;;2.69;84.92
65758;BME280;52495;52.208;5.158;2023-04-27T05:25:05;102101.50;;;2.77;84.47
65758;BME280;52495;52.208;5.158;2023-04-27T05:27:32;102107.88;;;2.88;85.45
65758;BME280;52495;52.208;5.158;2023-04-27T05:29:58;102120.94;;;2.98;85.52
65758;BME280;52495;52.208;5.158;2023-04-27T05:32:25;102110.22;;;3.08;85.63
65758;BME280;52495;52.208;5.158;2023-04-27T05:34:52;102121.72;;;3.21;85.06
65758;BME280;52495;52.208;5.158;2023-04-27T05:37:19;102117.00;;;3.32;84.90
65758;BME280;52495;52.208;5.158;2023-04-27T05:39:46;102116.47;;;3.42;84.84
65758;BME280;52495;52.208;5.158;2023-04-27T05:42:14;102108.31;;;3.53;84.62
65758;BME280;52495;52.208;5.158;2023-04-27T05:44:41;102107.75;;;3.61;84.69
65758;BME280;52495;52.208;5.158;2023-04-27T05:47:08;102108.03;;;3.71;84.98
65758;BME280;52495;52.208;5.158;2023-04-27T05:49:34;102106.63;;;3.80;84.41
65758;BME280;52495;52.208;5.158;2023-04-27T05:52:01;102106.00;;;3.88;84.15
65758;BME280;52495;52.208;5.158;2023-04-27T05:54:29;102110.56;;;3.98;83.67
65758;BME280;52495;52.208;5.158;2023-04-27T05:56:55;102110.88;;;4.07;83.82
65758;BME280;52495;52.208;5.158;2023-04-27T05:59:23;102100.09;;;4.18;83.73
65758;BME280;52495;52.208;5.158;2023-04-27T06:01:51;102106.44;;;4.31;83.49
65758;BME280;52495;52.208;5.158;2023-04-27T06:04:18;102105.00;;;4.40;83.20
65758;BME280;52495;52.208;5.158;2023-04-27T06:06:45;102103.66;;;4.53;82.87
65758;BME280;52495;52.208;5.158;2023-04-27T06:09:12;102103.03;;;4.62;82.47
65758;BME280;52495;52.208;5.158;2023-04-27T06:11:38;102103.25;;;4.70;81.89
65758;BME280;52495;52.208;5.158;2023-04-27T06:14:05;102102.59;;;4.76;81.73
65758;BME280;52495;52.208;5.158;2023-04-27T06:16:33;102102.91;;;4.88;80.52
65758;BME280;52495;52.208;5.158;2023-04-27T06:19:00;102091.97;;;4.95;80.77
65758;BME280;52495;52.208;5.158;2023-04-27T06:21:27;102106.66;;;5.01;80.60
65758;BME280;52495;52.208;5.158;2023-04-27T06:23:53;102105.16;;;5.09;80.77
65758;BME280;52495;52.208;5.158;2023-04-27T06:26:20;102112.28;;;5.21;79.84
65758;BME280;52495;52.208;5.158;2023-04-27T06:28:47;102107.38;;;5.30;79.61
65758;BME280;52495;52.208;5.158;2023-04-27T06:31:13;102101.63;;;5.39;78.78
65758;BME280;52495;52.208;5.158;2023-04-27T06:33:42;102102.69;;;5.46;78.43
65758;BME280;52495;52.208;5.158;2023-04-27T06:36:08;102103.78;;;5.57;78.83
65758;BME280;52495;52.208;5.158;2023-04-27T06:38:35;102104.91;;;5.69;78.18
65758;BME280;52495;52.208;5.158;2023-04-27T06:41:02;102106.88;;;5.79;77.38
65758;BME280;52495;52.208;5.158;2023-04-27T06:43:29;102111.22;;;5.83;76.89
65758;BME280;52495;52.208;5.158;2023-04-27T06:45:56;102114.03;;;5.94;76.06
65758;BME280;52495;52.208;5.158;2023-04-27T06:48:23;102102.28;;;6.02;76.17
65758;BME280;52495;52.208;5.158;2023-04-27T06:50:51;102103.41;;;6.15;75.04
65758;BME280;52495;52.208;5.158;2023-04-27T06:53:18;102098.47;;;6.25;75.46
65758;BME280;52495;52.208;5.158;2023-04-27T06:55:45;102097.00;;;6.36;73.83
65758;BME280;52495;52.208;5.158;2023-04-27T06:58:12;102095.34;;;6.38;72.67
65758;BME280;52495;52.208;5.158;2023-04-27T07:00:39;102092.91;;;6.44;71.61
65758;BME280;52495;52.208;5.158;2023-04-27T07:03:06;102094.88;;;6.58;71.89
65758;BME280;52495;52.208;5.158;2023-04-27T07:05:33;102095.84;;;6.64;70.58
65758;BME280;52495;52.208;5.158;2023-04-27T07:08:01;102090.94;;;6.77;69.46
65758;BME280;52495;52.208;5.158;2023-04-27T07:10:27;102093.78;;;6.89;69.79
65758;BME280;52495;52.208;5.158;2023-04-27T07:12:54;102097.38;;;6.99;69.67
65758;BME280;52495;52.208;5.158;2023-04-27T07:15:21;102100.16;;;7.11;68.90
65758;BME280;52495;52.208;5.158;2023-04-27T07:17:50;102102.97;;;7.25;68.67
65758;BME280;52495;52.208;5.158;2023-04-27T07:20:16;102097.19;;;7.39;68.48
65758;BME280;52495;52.208;5.158;2023-04-27T07:22:43;102108.47;;;7.49;65.64
65758;BME280;52495;52.208;5.158;2023-04-27T07:25:11;102089.78;;;7.57;64.87
65758;BME280;52495;52.208;5.158;2023-04-27T07:27:38;102091.63;;;7.69;65.30
65758;BME280;52495;52.208;5.158;2023-04-27T07:30:07;102094.47;;;7.86;64.61
65758;BME280;52495;52.208;5.158;2023-04-27T07:32:34;102086.97;;;8.02;62.74
65758;BME280;52495;52.208;5.158;2023-04-27T07:35:01;102095.72;;;8.15;62.77
65758;BME280;52495;52.208;5.158;2023-04-27T07:37:28;102088.94;;;8.22;62.00
65758;BME280;52495;52.208;5.158;2023-04-27T07:39:55;102086.56;;;8.35;62.36
65758;BME280;52495;52.208;5.158;2023-04-27T07:42:25;102079.00;;;8.49;61.62
65758;BME280;52495;52.208;5.158;2023-04-27T07:44:52;102091.16;;;8.61;60.16
65758;BME280;52495;52.208;5.158;2023-04-27T07:47:18;102083.56;;;8.72;59.52
65758;BME280;52495;52.208;5.158;2023-04-27T07:49:46;102082.88;;;8.87;59.10
65758;BME280;52495;52.208;5.158;2023-04-27T07:52:13;102092.41;;;8.98;57.66
65758;BME280;52495;52.208;5.158;2023-04-27T07:54:40;102082.22;;;9.15;59.03
65758;BME280;52495;52.208;5.158;2023-04-27T07:57:07;102088.34;;;9.24;55.17
65758;BME280;52495;52.208;5.158;2023-04-27T07:59:37;102089.22;;;9.25;55.34
65758;BME280;52495;52.208;5.158;2023-04-27T08:02:04;102093.53;;;9.29;54.56
65758;BME280;52495;52.208;5.158;2023-04-27T08:04:31;102091.00;;;9.35;55.59
65758;BME280;52495;52.208;5.158;2023-04-27T08:06:58;102085.91;;;9.41;53.42
65758;BME280;52495;52.208;5.158;2023-04-27T08:09:25;102088.56;;;9.52;53.58
65758;BME280;52495;52.208;5.158;2023-04-27T08:11:52;102092.06;;;9.64;54.10
65758;BME280;52495;52.208;5.158;2023-04-27T08:14:19;102098.16;;;9.74;53.76
65758;BME280;52495;52.208;5.158;2023-04-27T08:16:47;102094.81;;;9.85;52.68
65758;BME280;52495;52.208;5.158;2023-04-27T08:19:16;102094.81;;;9.92;53.25
65758;BME280;52495;52.208;5.158;2023-04-27T08:21:43;102086.22;;;9.93;52.58
65758;BME280;52495;52.208;5.158;2023-04-27T08:24:10;102088.00;;;10.01;51.27
65758;BME280;52495;52.208;5.158;2023-04-27T08:26:36;102088.03;;;10.09;51.23
65758;BME280;52495;52.208;5.158;2023-04-27T08:29:04;102086.38;;;10.19;51.27
65758;BME280;52495;52.208;5.158;2023-04-27T08:31:31;102082.09;;;10.29;51.73
65758;BME280;52495;52.208;5.158;2023-04-27T08:33:59;102075.28;;;10.37;49.87
65758;BME280;52495;52.208;5.158;2023-04-27T08:36:26;102072.72;;;10.46;49.83
65758;BME280;52495;52.208;5.158;2023-04-27T08:38:53;102068.50;;;10.67;48.62
65758;BME280;52495;52.208;5.158;2023-04-27T08:41:20;102076.22;;;10.61;47.92
65758;BME280;52495;52.208;5.158;2023-04-27T08:43:48;102077.97;;;10.67;47.97
65758;BME280;52495;52.208;5.158;2023-04-27T08:46:17;102068.50;;;10.75;47.74
65758;BME280;52495;52.208;5.158;2023-04-27T08:48:45;102057.31;;;10.85;46.36
65758;BME280;52495;52.208;5.158;2023-04-27T08:51:14;102068.50;;;10.76;45.81
65758;BME280;52495;52.208;5.158;2023-04-27T08:53:47;102071.13;;;10.84;46.22
65758;BME280;52495;52.208;5.158;2023-04-27T08:56:14;102071.13;;;10.92;45.95
65758;BME280;52495;52.208;5.158;2023-04-27T08:58:41;102071.97;;;10.94;46.36
65758;BME280;52495;52.208;5.158;2023-04-27T09:01:08;102068.53;;;11.03;46.97
65758;BME280;52495;52.208;5.158;2023-04-27T09:03:35;102072.88;;;11.13;45.86
65758;BME280;52495;52.208;5.158;2023-04-27T09:06:04;102062.53;;;11.21;45.60
65758;BME280;52495;52.208;5.158;2023-04-27T09:08:43;102058.19;;;11.21;43.14
65758;BME280;52495;52.208;5.158;2023-04-27T09:11:11;102058.22;;;11.31;44.72
65758;BME280;52495;52.208;5.158;2023-04-27T09:13:39;102061.63;;;11.39;45.30
65758;BME280;52495;52.208;5.158;2023-04-27T09:16:06;102056.47;;;11.45;45.21
65758;BME280;52495;52.208;5.158;2023-04-27T09:18:35;102060.78;;;11.49;44.70
65758;BME280;52495;52.208;5.158;2023-04-27T09:21:03;102056.44;;;11.54;44.83
65758;BME280;52495;52.208;5.158;2023-04-27T09:23:31;102055.56;;;11.69;44.01
65758;BME280;52495;52.208;5.158;2023-04-27T09:26:01;102058.13;;;11.74;44.44
65758;BME280;52495;52.208;5.158;2023-04-27T09:28:30;102055.53;;;11.79;43.56
65758;BME280;52495;52.208;5.158;2023-04-27T09:30:58;102048.63;;;11.82;41.69
65758;BME280;52495;52.208;5.158;2023-04-27T09:33:26;102046.03;;;11.93;42.67
65758;BME280;52495;52.208;5.158;2023-04-27T09:35:53;102050.31;;;12.01;42.37
65758;BME280;52495;52.208;5.158;2023-04-27T09:38:21;102049.41;;;12.12;41.45
65758;BME280;52495;52.208;5.158;2023-04-27T09:40:48;102045.94;;;12.20;41.24
65758;BME280;52495;52.208;5.158;2023-04-27T09:43:17;102043.34;;;12.24;41.32
65758;BME280;52495;52.208;5.158;2023-04-27T09:45:44;102041.63;;;12.19;41.34
65758;BME280;52495;52.208;5.158;2023-04-27T09:48:11;102045.00;;;12.32;41.93
65758;BME280;52495;52.208;5.158;2023-04-27T09:50:39;102033.75;;;12.39;40.34
65758;BME280;52495;52.208;5.158;2023-04-27T09:53:09;102040.63;;;12.44;39.76
65758;BME280;52495;52.208;5.158;2023-04-27T09:55:41;102034.53;;;12.53;40.49
65758;BME280;52495;52.208;5.158;2023-04-27T09:58:42;102036.16;;;12.67;39.45
65758;BME280;52495;52.208;5.158;2023-04-27T10:01:17;102034.44;;;12.69;39.66
65758;BME280;52495;52.208;5.158;2023-04-27T10:04:00;102031.84;;;12.70;39.46
65758;BME280;52495;52.208;5.158;2023-04-27T10:06:59;102038.72;;;12.74;38.52
65758;BME280;52495;52.208;5.158;2023-04-27T10:09:27;102036.09;;;12.78;38.89
65758;BME280;52495;52.208;5.158;2023-04-27T10:11:56;102039.53;;;12.83;39.40
65758;BME280;52495;52.208;5.158;2023-04-27T10:14:51;102038.56;;;12.96;39.22
65758;BME280;52495;52.208;5.158;2023-04-27T10:17:23;102040.22;;;13.02;38.09
65758;BME280;52495;52.208;5.158;2023-04-27T10:19:56;102038.56;;;12.98;37.55
65758;BME280;52495;52.208;5.158;2023-04-27T10:22:23;102032.44;;;13.05;37.94
65758;BME280;52495;52.208;5.158;2023-04-27T10:24:50;102027.22;;;13.08;37.88
65758;BME280;52495;52.208;5.158;2023-04-27T10:27:18;102032.41;;;13.08;37.05
65758;BME280;52495;52.208;5.158;2023-04-27T10:29:49;102022.91;;;13.10;37.15
65758;BME280;52495;52.208;5.158;2023-04-27T10:32:20;102024.63;;;13.08;37.00
65758;BME280;52495;52.208;5.158;2023-04-27T10:34:48;102027.22;;;13.11;37.81
65758;BME280;52495;52.208;5.158;2023-04-27T10:37:17;102026.25;;;13.21;39.00
65758;BME280;52495;52.208;5.158;2023-04-27T10:39:46;102033.97;;;13.28;39.31
65758;BME280;52495;52.208;5.158;2023-04-27T10:42:13;102030.47;;;13.30;38.24
65758;BME280;52495;52.208;5.158;2023-04-27T10:44:39;102027.84;;;13.35;37.33
65758;BME280;52495;52.208;5.158;2023-04-27T10:47:15;102029.59;;;13.33;38.22
65758;BME280;52495;52.208;5.158;2023-04-27T10:49:44;102027.03;;;13.30;37.71
65758;BME280;52495;52.208;5.158;2023-04-27T10:52:12;102026.94;;;13.42;38.11
65758;BME280;52495;52.208;5.158;2023-04-27T10:54:44;102018.16;;;13.57;36.65
65758;BME280;52495;52.208;5.158;2023-04-27T10:57:11;102014.75;;;13.50;36.44
65758;BME280;52495;52.208;5.158;2023-04-27T10:59:47;102011.19;;;13.59;37.03
65758;BME280;52495;52.208;5.158;2023-04-27T11:02:17;102016.22;;;13.75;36.89
65758;BME280;52495;52.208;5.158;2023-04-27T11:04:50;102015.88;;;14.03;36.42
65758;BME280;52495;52.208;5.158;2023-04-27T11:07:23;102002.97;;;13.96;37.02
65758;BME280;52495;52.208;5.158;2023-04-27T11:09:51;102002.03;;;14.02;37.60
65758;BME280;52495;52.208;5.158;2023-04-27T11:12:17;101995.84;;;14.13;37.05
65758;BME280;52495;52.208;5.158;2023-04-27T11:14:44;101988.75;;;14.25;36.83
65758;BME280;52495;52.208;5.158;2023-04-27T11:17:11;101990.41;;;14.31;36.62
65758;BME280;52495;52.208;5.158;2023-04-27T11:19:46;101971.34;;;14.32;36.47
65758;BME280;52495;52.208;5.158;2023-04-27T11:22:14;101969.59;;;14.33;35.67
65758;BME280;52495;52.208;5.158;2023-04-27T11:24:48;101975.50;;;14.42;36.22
65758;BME280;52495;52.208;5.158;2023-04-27T11:27:15;101970.06;;;14.58;36.06
65758;BME280;52495;52.208;5.158;2023-04-27T11:29:42;101969.94;;;14.66;35.54
65758;BME280;52495;52.208;5.158;2023-04-27T11:32:17;101972.53;;;14.69;34.64
65758;BME280;52495;52.208;5.158;2023-04-27T11:34:49;101967.47;;;14.58;35.60
65758;BME280;52495;52.208;5.158;2023-04-27T11:37:20;101960.47;;;14.62;35.46
65758;BME280;52495;52.208;5.158;2023-04-27T11:39:48;101964.91;;;14.55;34.74
65758;BME280;52495;52.208;5.158;2023-04-27T11:42:17;101954.69;;;14.46;34.94
65758;BME280;52495;52.208;5.158;2023-04-27T11:44:50;101960.66;;;14.51;35.62
65758;BME280;52495;52.208;5.158;2023-04-27T11:47:17;101958.06;;;14.51;36.08
65758;BME280;52495;52.208;5.158;2023-04-27T11:49:46;101953.69;;;14.54;35.50
65758;BME280;52495;52.208;5.158;2023-04-27T11:52:14;101966.00;;;14.43;35.52
65758;BME280;52495;52.208;5.158;2023-04-27T11:54:48;101947.59;;;14.55;36.90
65758;BME280;52495;52.208;5.158;2023-04-27T11:57:15;101950.78;;;14.75;36.78
65758;BME280;52495;52.208;5.158;2023-04-27T11:59:42;101952.19;;;14.94;36.98
65758;BME280;52495;52.208;5.158;2023-04-27T12:02:08;101956.16;;;15.14;35.63
65758;BME280;52495;52.208;5.158;2023-04-27T12:04:36;101948.38;;;15.14;35.41
65758;BME280;52495;52.208;5.158;2023-04-27T12:07:02;101955.13;;;15.23;34.48
65758;BME280;52495;52.208;5.158;2023-04-27T12:09:31;101955.94;;;15.26;34.58
65758;BME280;52495;52.208;5.158;2023-04-27T12:11:58;101959.31;;;15.31;34.46
65758;BME280;52495;52.208;5.158;2023-04-27T12:14:25;101950.72;;;15.26;33.98
65758;BME280;52495;52.208;5.158;2023-04-27T12:16:51;101941.25;;;15.22;34.37
65758;BME280;52495;52.208;5.158;2023-04-27T12:19:18;101940.41;;;15.22;34.15
65758;BME280;52495;52.208;5.158;2023-04-27T12:21:45;101936.88;;;15.26;34.40
65758;BME280;52495;52.208;5.158;2023-04-27T12:24:12;101946.25;;;15.33;34.84
65758;BME280;52495;52.208;5.158;2023-04-27T12:26:40;101936.78;;;15.29;34.74
65758;BME280;52495;52.208;5.158;2023-04-27T12:29:07;101931.22;;;15.47;33.83
65758;BME280;52495;52.208;5.158;2023-04-27T12:31:33;101935.44;;;15.55;33.01
65758;BME280;52495;52.208;5.158;2023-04-27T12:34:00;101922.41;;;15.55;33.17
65758;BME280;52495;52.208;5.158;2023-04-27T12:36:27;101924.34;;;15.45;34.40
65758;BME280;52495;52.208;5.158;2023-04-27T12:38:57;101924.44;;;15.39;34.25
65758;BME280;52495;52.208;5.158;2023-04-27T12:41:24;101921.53;;;15.56;34.46
65758;BME280;52495;52.208;5.158;2023-04-27T12:43:52;101915.25;;;15.65;34.95
65758;BME280;52495;52.208;5.158;2023-04-27T12:46:19;101918.50;;;15.76;34.26
65758;BME280;52495;52.208;5.158;2023-04-27T12:48:46;101920.59;;;16.01;33.40
65758;BME280;52495;52.208;5.158;2023-04-27T12:51:12;101924.75;;;16.10;33.92
65758;BME280;52495;52.208;5.158;2023-04-27T12:53:39;101921.19;;;16.12;33.92
65758;BME280;52495;52.208;5.158;2023-04-27T12:56:06;101921.06;;;16.18;33.83
65758;BME280;52495;52.208;5.158;2023-04-27T12:58:33;101922.84;;;16.16;34.07
65758;BME280;52495;52.208;5.158;2023-04-27T13:01:02;101911.97;;;15.97;34.10